createdAt,value
2023-03-26T00:01:37.641Z,97761.94
2023-03-26T00:04:07.607Z,97763.81
2023-03-26T00:06:39.933Z,97755.09
2023-03-26T00:09:13.572Z,97759.22
2023-03-26T00:11:40.773Z,97758.81
2023-03-26T00:14:09.612Z,97772.22
2023-03-26T00:16:36.645Z,97770.28
2023-03-26T00:19:04.295Z,97769.00
2023-03-26T00:21:31.888Z,97772.47
2023-03-26T00:24:07.371Z,97766.88
2023-03-26T00:26:38.125Z,97773.06
2023-03-26T00:29:08.370Z,97773.16
2023-03-26T00:31:37.977Z,97775.63
2023-03-26T00:34:06.863Z,97774.69
2023-03-26T00:36:36.069Z,97775.03
2023-03-26T00:39:06.364Z,97779.72
2023-03-26T00:41:37.281Z,97779.81
2023-03-26T00:44:04.852Z,97779.88
2023-03-26T00:46:32.401Z,97787.63
2023-03-26T00:49:00.682Z,97781.22
2023-03-26T00:51:28.850Z,97774.88
2023-03-26T00:53:58.013Z,97764.84
2023-03-26T00:56:25.711Z,97765.53
2023-03-26T00:58:52.980Z,97769.09
2023-03-26T01:01:27.937Z,97767.25
2023-03-26T01:04:31.876Z,97776.84
2023-03-26T01:07:13.792Z,97766.97
2023-03-26T01:09:50.295Z,97774.19
2023-03-26T01:12:24.128Z,97769.69
2023-03-26T01:14:55.016Z,97769.50
2023-03-26T01:17:24.345Z,97779.31
2023-03-26T01:20:12.920Z,97771.56
2023-03-26T01:22:53.306Z,97769.25
2023-03-26T01:25:25.472Z,97762.47
2023-03-26T01:27:56.629Z,97770.09
2023-03-26T01:30:33.738Z,97773.59
2023-03-26T01:34:24.842Z,97767.56
2023-03-26T01:37:17.703Z,97770.38
2023-03-26T01:40:08.887Z,97767.56
2023-03-26T01:47:31.539Z,97769.88
2023-03-26T01:50:39.228Z,97758.22
2023-03-26T02:05:24.265Z,97761.69
2023-03-26T02:08:11.987Z,97760.75
2023-03-26T02:10:49.662Z,97762.28
2023-03-26T02:13:17.186Z,97762.38
2023-03-26T02:16:06.945Z,97759.38
2023-03-26T02:18:41.922Z,97760.97
2023-03-26T02:21:20.262Z,97766.84
2023-03-26T02:23:57.879Z,97769.16
2023-03-26T02:26:25.629Z,97771.25
2023-03-26T02:28:52.871Z,97760.59
2023-03-26T02:31:20.110Z,97766.69
2023-03-26T02:33:49.609Z,97778.66
2023-03-26T02:36:19.627Z,97780.38
2023-03-26T02:38:46.976Z,97770.44
2023-03-26T02:41:13.952Z,97771.88
2023-03-26T02:43:41.075Z,97770.94
2023-03-26T02:46:08.073Z,97764.06
2023-03-26T02:48:35.430Z,97771.88
2023-03-26T02:51:04.498Z,97761.41
2023-03-26T02:53:31.718Z,97765.09
2023-03-26T02:56:00.386Z,97755.84
2023-03-26T02:58:30.153Z,97753.28
2023-03-26T03:00:57.293Z,97757.75
2023-03-26T03:03:27.397Z,97753.53
2023-03-26T03:05:56.246Z,97741.19
2023-03-26T03:08:28.194Z,97742.16
2023-03-26T03:11:01.850Z,97748.66
2023-03-26T03:13:29.618Z,97739.16
2023-03-26T03:15:57.074Z,97739.63
2023-03-26T03:18:24.586Z,97736.16
2023-03-26T03:20:51.929Z,97742.84
2023-03-26T03:23:19.128Z,97741.75
2023-03-26T03:25:46.082Z,97733.69
2023-03-26T03:28:13.968Z,97740.50
2023-03-26T03:30:41.890Z,97745.78
2023-03-26T03:33:09.156Z,97750.53
2023-03-26T03:35:37.808Z,97749.16
2023-03-26T03:38:05.002Z,97748.41
2023-03-26T03:40:32.182Z,97740.34
2023-03-26T03:42:59.415Z,97747.13
2023-03-26T03:45:26.466Z,97748.94
2023-03-26T03:47:54.078Z,97739.41
2023-03-26T03:50:21.127Z,97745.44
2023-03-26T03:52:48.285Z,97738.13
2023-03-26T03:55:15.306Z,97754.72
2023-03-26T03:57:42.485Z,97747.28
2023-03-26T04:00:11.794Z,97754.28
2023-03-26T04:02:43.023Z,97748.66
2023-03-26T04:05:11.712Z,97749.19
2023-03-26T04:07:39.572Z,97751.56
2023-03-26T04:10:09.686Z,97757.50
2023-03-26T04:12:36.993Z,97750.66
2023-03-26T04:15:04.777Z,97748.63
2023-03-26T04:17:32.010Z,97760.41
2023-03-26T04:20:07.054Z,97757.53
2023-03-26T04:22:34.458Z,97751.91
2023-03-26T04:25:02.721Z,97756.69
2023-03-26T04:27:35.399Z,97753.13
2023-03-26T04:30:05.568Z,97751.91
2023-03-26T04:32:34.357Z,97746.06
2023-03-26T04:35:04.198Z,97741.47
2023-03-26T04:37:39.858Z,97745.66
2023-03-26T04:40:25.019Z,97740.53
2023-03-26T04:42:54.699Z,97733.41
2023-03-26T04:45:22.898Z,97729.84
2023-03-26T04:47:50.887Z,97731.88
2023-03-26T04:50:17.944Z,97738.53
2023-03-26T04:52:45.687Z,97734.50
2023-03-26T04:55:48.909Z,97729.66
2023-03-26T04:58:16.868Z,97736.81
2023-03-26T05:00:43.842Z,97736.88
2023-03-26T05:03:11.860Z,97729.16
2023-03-26T05:05:40.025Z,97732.53
2023-03-26T05:08:07.346Z,97731.09
2023-03-26T05:10:34.421Z,97739.47
2023-03-26T05:13:01.578Z,97731.50
2023-03-26T05:15:28.448Z,97737.13
2023-03-26T05:17:56.130Z,97736.44
2023-03-26T05:20:28.260Z,97728.63
2023-03-26T05:22:56.385Z,97731.94
2023-03-26T05:25:23.517Z,97737.06
2023-03-26T05:27:50.923Z,97731.72
2023-03-26T05:30:20.810Z,97734.56
2023-03-26T05:32:49.595Z,97729.47
2023-03-26T05:35:18.058Z,97730.00
2023-03-26T05:37:47.069Z,97729.06
2023-03-26T05:40:15.454Z,97729.84
2023-03-26T05:42:43.599Z,97728.81
2023-03-26T05:45:13.582Z,97733.47
2023-03-26T05:47:41.259Z,97730.75
2023-03-26T05:50:10.344Z,97722.63
2023-03-26T05:52:37.938Z,97722.44
2023-03-26T05:55:05.552Z,97730.94
2023-03-26T05:57:33.245Z,97719.97
2023-03-26T06:00:00.387Z,97723.97
2023-03-26T06:02:29.469Z,97729.75
2023-03-26T06:04:56.930Z,97733.25
2023-03-26T06:07:24.174Z,97725.84
2023-03-26T06:09:51.105Z,97734.06
2023-03-26T06:12:18.321Z,97717.66
2023-03-26T06:14:46.150Z,97719.22
2023-03-26T06:17:13.846Z,97715.63
2023-03-26T06:19:40.892Z,97721.84
2023-03-26T06:22:08.104Z,97726.03
2023-03-26T06:24:35.603Z,97726.63
2023-03-26T06:27:02.996Z,97730.09
2023-03-26T06:29:29.942Z,97729.94
2023-03-26T06:32:03.451Z,97716.16
2023-03-26T06:34:36.313Z,97725.59
2023-03-26T06:37:06.312Z,97723.03
2023-03-26T06:39:33.363Z,97713.50
2023-03-26T06:42:00.749Z,97721.84
2023-03-26T06:44:28.127Z,97707.84
2023-03-26T06:46:55.546Z,97714.28
2023-03-26T06:49:22.458Z,97711.03
2023-03-26T06:51:49.851Z,97713.16
2023-03-26T06:54:17.950Z,97720.78
2023-03-26T06:56:45.282Z,97725.38
2023-03-26T06:59:12.210Z,97714.59
2023-03-26T07:01:39.464Z,97723.53
2023-03-26T07:04:06.543Z,97729.47
2023-03-26T07:06:33.767Z,97717.88
2023-03-26T07:09:00.784Z,97724.41
2023-03-26T07:11:28.905Z,97724.72
2023-03-26T07:13:56.624Z,97719.50
2023-03-26T07:16:23.945Z,97725.88
2023-03-26T07:18:51.402Z,97727.03
2023-03-26T07:21:19.895Z,97723.38
2023-03-26T07:23:48.230Z,97716.16
2023-03-26T07:26:49.125Z,97720.56
2023-03-26T07:29:27.946Z,97722.91
2023-03-26T07:32:18.583Z,97712.50
2023-03-26T07:34:56.136Z,97713.78
2023-03-26T07:37:28.938Z,97711.53
2023-03-26T07:40:08.809Z,97710.44
2023-03-26T07:42:53.953Z,97704.59
2023-03-26T07:45:42.681Z,97689.44
2023-03-26T07:48:25.419Z,97693.69
2023-03-26T07:50:54.635Z,97689.75
2023-03-26T07:53:22.748Z,97687.75
2023-03-26T07:55:57.613Z,97682.97
2023-03-26T07:58:36.464Z,97686.16
2023-03-26T08:01:37.774Z,97679.97
2023-03-26T08:04:33.251Z,97677.09
2023-03-26T08:07:08.370Z,97669.56
2023-03-26T08:10:03.724Z,97672.97
2023-03-26T08:12:40.836Z,97665.72
2023-03-26T08:15:39.859Z,97670.34
2023-03-26T08:18:39.206Z,97662.97
2023-03-26T08:21:17.217Z,97666.06
2023-03-26T08:24:11.013Z,97666.91
2023-03-26T08:27:18.782Z,97666.72
2023-03-26T08:30:21.632Z,97660.34
2023-03-26T08:33:11.528Z,97650.06
2023-03-26T08:35:42.471Z,97652.38
2023-03-26T08:38:16.433Z,97646.59
2023-03-26T08:41:35.398Z,97649.78
2023-03-26T08:44:47.693Z,97651.09
2023-03-26T08:47:39.546Z,97643.72
2023-03-26T08:50:31.139Z,97633.25
2023-03-26T08:53:15.465Z,97627.97
2023-03-26T08:56:00.281Z,97619.09
2023-03-26T08:58:48.582Z,97611.16
2023-03-26T09:01:55.066Z,97607.38
2023-03-26T09:04:48.727Z,97599.09
2023-03-26T09:08:10.604Z,97589.47
2023-03-26T09:11:02.839Z,97589.38
2023-03-26T09:13:44.745Z,97595.81
2023-03-26T09:16:38.791Z,97586.47
2023-03-26T09:19:40.500Z,97584.47
2023-03-26T09:22:41.214Z,97582.13
2023-03-26T09:25:56.465Z,97571.41
2023-03-26T09:29:08.594Z,97572.47
2023-03-26T09:31:58.104Z,97569.94
2023-03-26T09:35:03.506Z,97567.69
2023-03-26T09:37:59.309Z,97567.59
2023-03-26T09:40:47.928Z,97571.81
2023-03-26T09:43:52.168Z,97571.94
2023-03-26T09:46:46.909Z,97572.56
2023-03-26T09:49:42.123Z,97574.94
2023-03-26T09:52:18.424Z,97569.53
2023-03-26T09:55:49.916Z,97560.28
2023-03-26T09:59:11.569Z,97562.28
2023-03-26T10:02:18.882Z,97551.84
2023-03-26T10:05:31.387Z,97556.38
2023-03-26T10:08:33.334Z,97545.69
2023-03-26T10:11:16.299Z,97537.16
2023-03-26T10:14:18.872Z,97522.59
2023-03-26T10:17:07.286Z,97509.41
2023-03-26T10:20:04.768Z,97512.53
2023-03-26T10:22:45.955Z,97510.78
2023-03-26T10:25:54.426Z,97500.06
2023-03-26T10:28:41.302Z,97497.09
2023-03-26T10:31:35.752Z,97490.69
2023-03-26T10:34:30.365Z,97494.09
2023-03-26T10:37:12.344Z,97486.38
2023-03-26T10:40:22.502Z,97493.75
2023-03-26T10:43:25.725Z,97484.44
2023-03-26T10:46:29.276Z,97473.56
2023-03-26T10:49:16.579Z,97477.16
2023-03-26T10:51:59.713Z,97477.56
2023-03-26T10:54:55.784Z,97468.50
2023-03-26T10:57:39.508Z,97469.72
2023-03-26T11:00:26.195Z,97467.47
2023-03-26T11:03:43.825Z,97470.28
2023-03-26T11:06:50.421Z,97466.25
2023-03-26T11:09:42.081Z,97462.31
2023-03-26T11:12:30.362Z,97462.94
2023-03-26T11:15:33.073Z,97459.06
2023-03-26T11:18:20.313Z,97458.84
2023-03-26T11:21:20.685Z,97457.13
2023-03-26T11:24:44.974Z,97451.72
2023-03-26T11:27:50.721Z,97445.56
2023-03-26T11:30:42.530Z,97445.44
2023-03-26T11:33:37.617Z,97438.91
2023-03-26T11:36:19.525Z,97441.34
2023-03-26T11:38:50.740Z,97438.72
2023-03-26T11:41:26.241Z,97441.47
2023-03-26T11:44:07.226Z,97429.63
2023-03-26T11:46:42.621Z,97425.78
2023-03-26T11:49:14.708Z,97414.69
2023-03-26T11:51:47.405Z,97412.41
2023-03-26T11:54:16.454Z,97421.22
2023-03-26T11:57:26.753Z,97420.13
2023-03-26T12:00:18.211Z,97430.38
2023-03-26T12:02:47.707Z,97422.66
2023-03-26T12:05:26.489Z,97427.25
2023-03-26T12:07:59.315Z,97417.81
2023-03-26T12:10:42.942Z,97417.00
2023-03-26T12:13:28.236Z,97417.75
2023-03-26T12:16:20.763Z,97414.00
2023-03-26T12:19:05.500Z,97424.47
2023-03-26T12:21:51.595Z,97417.00
2023-03-26T12:24:44.945Z,97410.50
2023-03-26T12:27:28.355Z,97410.34
2023-03-26T12:30:23.911Z,97408.88
2023-03-26T12:32:55.951Z,97411.53
2023-03-26T12:35:30.241Z,97406.34
2023-03-26T12:38:24.579Z,97403.84
2023-03-26T12:44:42.331Z,97403.03
2023-03-26T12:44:59.352Z,97402.78
2023-03-26T12:48:01.815Z,97389.03
2023-03-26T12:50:34.027Z,97405.19
2023-03-26T12:53:38.537Z,97393.47
2023-03-26T12:56:38.654Z,97397.22
2023-03-26T12:59:44.616Z,97398.66
2023-03-26T13:02:59.100Z,97397.69
2023-03-26T13:06:23.735Z,97383.34
2023-03-26T13:09:27.778Z,97388.66
2023-03-26T13:12:41.800Z,97383.72
2023-03-26T13:15:31.264Z,97382.50
2023-03-26T13:18:27.388Z,97380.94
2023-03-26T13:21:09.665Z,97376.44
2023-03-26T13:24:00.879Z,97375.63
2023-03-26T13:27:27.049Z,97370.31
2023-03-26T13:30:22.300Z,97375.25
2023-03-26T13:33:35.922Z,97371.38
2023-03-26T13:36:23.380Z,97384.91
2023-03-26T13:39:26.245Z,97387.81
2023-03-26T13:42:15.944Z,97389.28
2023-03-26T13:45:07.439Z,97403.19
2023-03-26T13:47:41.117Z,97400.94
2023-03-26T13:50:28.690Z,97395.03
2023-03-26T13:52:58.980Z,97393.78
2023-03-26T13:55:38.556Z,97392.56
2023-03-26T13:58:22.047Z,97394.47
2023-03-26T14:00:58.501Z,97394.06
2023-03-26T14:04:03.920Z,97392.56
2023-03-26T14:06:54.225Z,97391.81
2023-03-26T14:10:01.948Z,97379.47
2023-03-26T14:12:52.473Z,97383.09
2023-03-26T14:15:28.535Z,97379.00
2023-03-26T14:18:25.917Z,97379.00
2023-03-26T14:21:54.645Z,97379.44
2023-03-26T14:24:49.686Z,97371.00
2023-03-26T14:27:44.411Z,97367.84
2023-03-26T14:30:17.910Z,97363.63
2023-03-26T14:33:27.848Z,97362.84
2023-03-26T14:36:05.671Z,97356.66
2023-03-26T14:39:13.867Z,97359.81
2023-03-26T14:42:32.408Z,97361.19
2023-03-26T14:45:49.552Z,97357.41
2023-03-26T14:48:55.921Z,97350.53
2023-03-26T14:51:53.495Z,97351.69
2023-03-26T14:54:27.300Z,97350.19
2023-03-26T14:57:18.904Z,97357.59
2023-03-26T14:59:58.391Z,97349.66
2023-03-26T15:03:24.676Z,97344.50
2023-03-26T15:06:15.430Z,97345.09
2023-03-26T15:09:22.867Z,97333.91
2023-03-26T15:12:22.093Z,97337.41
2023-03-26T15:15:39.044Z,97326.84
2023-03-26T15:18:49.615Z,97323.44
2023-03-26T15:22:26.633Z,97319.03
2023-03-26T15:25:16.821Z,97324.13
2023-03-26T15:28:20.568Z,97320.72
2023-03-26T15:31:18.998Z,97314.50
2023-03-26T15:34:20.172Z,97317.63
2023-03-26T15:37:30.669Z,97311.72
2023-03-26T15:40:16.547Z,97315.28
2023-03-26T15:43:12.207Z,97310.94
2023-03-26T15:46:25.284Z,97309.13
2023-03-26T15:49:19.731Z,97313.56
2023-03-26T15:52:13.069Z,97310.19
2023-03-26T15:55:18.140Z,97307.22
2023-03-26T15:58:28.129Z,97304.22
2023-03-26T16:01:21.183Z,97295.69
2023-03-26T16:04:10.701Z,97285.88
2023-03-26T16:07:03.778Z,97280.22
2023-03-26T16:09:48.053Z,97274.50
2023-03-26T16:12:57.558Z,97278.31
2023-03-26T16:15:29.978Z,97276.81
2023-03-26T16:18:10.392Z,97281.34
2023-03-26T16:20:50.697Z,97288.13
2023-03-26T16:23:47.581Z,97277.88
2023-03-26T16:26:44.108Z,97283.97
2023-03-26T16:29:14.403Z,97286.81
2023-03-26T16:32:35.493Z,97280.16
2023-03-26T16:35:55.280Z,97276.38
2023-03-26T16:38:25.033Z,97274.41
2023-03-26T16:41:03.629Z,97274.50
2023-03-26T16:43:46.840Z,97269.00
2023-03-26T16:46:53.354Z,97277.78
2023-03-26T16:50:08.967Z,97271.75
2023-03-26T16:53:02.762Z,97269.22
2023-03-26T16:55:43.881Z,97268.34
2023-03-26T16:58:10.934Z,97265.53
2023-03-26T17:00:59.890Z,97259.72
2023-03-26T17:04:02.724Z,97249.91
2023-03-26T17:06:56.789Z,97259.06
2023-03-26T17:10:09.771Z,97269.41
2023-03-26T17:12:45.313Z,97274.84
2023-03-26T17:16:04.245Z,97279.78
2023-03-26T17:19:24.598Z,97281.38
2023-03-26T17:22:37.517Z,97279.78
2023-03-26T17:25:32.013Z,97273.63
2023-03-26T17:28:24.208Z,97272.59
2023-03-26T17:31:15.882Z,97267.31
2023-03-26T17:33:43.652Z,97276.50
2023-03-26T17:36:16.517Z,97274.50
2023-03-26T17:38:47.152Z,97268.13
2023-03-26T17:42:01.326Z,97283.16
2023-03-26T17:44:57.758Z,97284.16
2023-03-26T17:47:38.315Z,97283.53
2023-03-26T17:50:17.960Z,97290.31
2023-03-26T17:53:01.708Z,97276.78
2023-03-26T17:55:40.651Z,97281.41
2023-03-26T17:58:29.755Z,97275.59
2023-03-26T18:01:06.411Z,97271.66
2023-03-26T18:03:44.887Z,97277.00
2023-03-26T18:06:57.058Z,97274.38
2023-03-26T18:09:57.108Z,97267.59
2023-03-26T18:12:33.533Z,97267.88
2023-03-26T18:15:28.985Z,97274.50
2023-03-26T18:18:19.779Z,97272.50
2023-03-26T18:20:49.356Z,97276.94
2023-03-26T18:23:39.079Z,97287.66
2023-03-26T18:26:32.469Z,97279.38
2023-03-26T18:29:29.509Z,97284.47
2023-03-26T18:32:09.368Z,97289.53
2023-03-26T18:34:52.688Z,97282.56
2023-03-26T18:37:27.970Z,97267.53
2023-03-26T18:40:16.261Z,97271.97
2023-03-26T18:42:48.664Z,97272.72
2023-03-26T18:45:38.692Z,97275.16
2023-03-26T18:48:17.795Z,97271.25
2023-03-26T18:50:47.538Z,97277.16
2023-03-26T18:53:20.810Z,97275.50
2023-03-26T18:55:50.692Z,97259.78
2023-03-26T18:58:34.409Z,97254.63
2023-03-26T19:01:20.125Z,97248.69
2023-03-26T19:03:51.774Z,97247.75
2023-03-26T19:06:21.296Z,97238.34
2023-03-26T19:08:49.601Z,97235.16
2023-03-26T19:11:18.074Z,97227.25
2023-03-26T19:14:00.002Z,97222.91
2023-03-26T19:16:34.027Z,97230.81
2023-03-26T19:19:06.928Z,97221.34
2023-03-26T19:21:36.591Z,97223.88
2023-03-26T19:24:05.574Z,97218.88
2023-03-26T19:26:33.420Z,97227.81
2023-03-26T19:29:00.992Z,97222.75
2023-03-26T19:31:34.495Z,97223.63
2023-03-26T19:34:15.687Z,97216.75
2023-03-26T19:37:21.994Z,97220.53
2023-03-26T19:39:55.442Z,97211.78
2023-03-26T19:42:43.725Z,97209.16
2023-03-26T19:45:23.596Z,97204.91
2023-03-26T19:48:03.661Z,97195.31
2023-03-26T19:50:42.255Z,97192.03
2023-03-26T19:53:18.968Z,97191.22
2023-03-26T19:56:14.639Z,97186.97
2023-03-26T19:58:43.043Z,97191.22
2023-03-26T20:01:21.093Z,97189.72
2023-03-26T20:03:58.043Z,97184.56
2023-03-26T20:06:42.514Z,97188.22
2023-03-26T20:09:13.636Z,97188.31
2023-03-26T20:11:41.231Z,97191.03
2023-03-26T20:14:18.236Z,97184.31
2023-03-26T20:16:46.001Z,97185.22
2023-03-26T20:19:15.256Z,97193.69
2023-03-26T20:21:44.361Z,97192.00
2023-03-26T20:24:17.914Z,97199.91
2023-03-26T20:26:46.410Z,97201.56
2023-03-26T20:29:15.048Z,97207.03
2023-03-26T20:31:43.266Z,97206.47
2023-03-26T20:34:26.201Z,97200.47
2023-03-26T20:36:57.155Z,97204.16
2023-03-26T20:39:28.705Z,97199.19
2023-03-26T20:41:56.532Z,97204.09
2023-03-26T20:44:26.794Z,97191.31
2023-03-26T20:46:56.507Z,97191.63
2023-03-26T20:49:25.186Z,97187.66
2023-03-26T20:51:52.070Z,97176.47
2023-03-26T20:54:23.555Z,97175.00
2023-03-26T20:56:52.517Z,97167.19
2023-03-26T20:59:26.578Z,97169.91
2023-03-26T21:01:56.865Z,97178.00
2023-03-26T21:04:24.989Z,97176.31
2023-03-26T21:06:57.588Z,97185.50
2023-03-26T21:09:34.193Z,97187.41
2023-03-26T21:12:15.315Z,97184.69
2023-03-26T21:14:44.213Z,97197.00
2023-03-26T21:17:19.128Z,97187.22
2023-03-26T21:19:47.319Z,97181.03
2023-03-26T21:22:22.673Z,97185.13
2023-03-26T21:25:17.368Z,97183.25
2023-03-26T21:27:54.849Z,97178.88
2023-03-26T21:30:22.396Z,97177.81
2023-03-26T21:32:50.372Z,97175.81
2023-03-26T21:35:19.091Z,97178.38
2023-03-26T21:37:50.805Z,97170.28
2023-03-26T21:40:19.488Z,97173.94
2023-03-26T21:42:50.206Z,97176.47
2023-03-26T21:45:19.082Z,97173.09
2023-03-26T21:47:46.654Z,97176.78
2023-03-26T21:50:22.227Z,97175.00
2023-03-26T21:52:51.795Z,97172.44
2023-03-26T21:55:23.632Z,97168.03
2023-03-26T21:58:13.412Z,97161.28
2023-03-26T22:01:02.734Z,97154.41
2023-03-26T22:03:55.475Z,97145.88
2023-03-26T22:06:46.032Z,97139.03
2023-03-26T22:09:15.084Z,97126.53
2023-03-26T22:11:44.225Z,97124.09
2023-03-26T22:14:13.349Z,97133.22
2023-03-26T22:16:41.711Z,97134.50
2023-03-26T22:19:09.015Z,97134.81
2023-03-26T22:21:36.363Z,97130.69
2023-03-26T22:24:07.107Z,97132.00
2023-03-26T22:26:36.426Z,97132.28
2023-03-26T22:29:05.190Z,97136.88
2023-03-26T22:31:32.476Z,97130.13
2023-03-26T22:33:59.452Z,97136.59
2023-03-26T22:36:27.467Z,97137.63
2023-03-26T22:38:55.344Z,97139.50
2023-03-26T22:41:23.459Z,97124.66
2023-03-26T22:43:53.628Z,97121.03
2023-03-26T22:46:22.780Z,97104.38
2023-03-26T22:48:50.862Z,97092.56
2023-03-26T22:51:18.621Z,97096.81
2023-03-26T22:53:45.979Z,97098.88
2023-03-26T22:56:14.354Z,97102.06
2023-03-26T22:58:42.305Z,97110.41
2023-03-26T23:01:18.048Z,97116.59
2023-03-26T23:03:45.547Z,97124.56
2023-03-26T23:06:13.525Z,97131.88
2023-03-26T23:08:41.216Z,97133.69
2023-03-26T23:11:21.956Z,97137.25
2023-03-26T23:13:49.752Z,97148.06
2023-03-26T23:16:18.102Z,97155.75
2023-03-26T23:18:45.805Z,97166.16
2023-03-26T23:21:20.853Z,97169.00
2023-03-26T23:23:52.189Z,97178.47
2023-03-26T23:26:19.543Z,97182.78
2023-03-26T23:28:46.999Z,97184.09
2023-03-26T23:31:14.525Z,97189.22
2023-03-26T23:33:45.896Z,97199.59
2023-03-26T23:36:18.387Z,97196.88
2023-03-26T23:38:48.249Z,97198.25
2023-03-26T23:41:21.505Z,97196.19
2023-03-26T23:43:55.859Z,97199.56
2023-03-26T23:46:30.267Z,97196.56
2023-03-26T23:49:00.118Z,97191.88
2023-03-26T23:51:30.188Z,97186.16
2023-03-26T23:53:57.822Z,97177.16
2023-03-26T23:56:27.097Z,97180.47
2023-03-26T23:58:55.301Z,97168.91
